Time;durP1;ratioP1;P1;durP2;ratioP2;P2;SDS_P1;SDS_P2;PMS_P1;PMS_P2;Temp;Humidity;BMP_temperature;BMP_pressure;BME280_temperature;BME280_humidity;BME280_pressure;Samples;Min_cycle;Max_cycle;Signal;HPM_P1;HPM_P2
2023/10/26 00:01:09;;;;;;;24.10;15.50;;;9.80;99.90;;;;;;5048662;28;20190;-43
2023/10/26 00:03:35;;;;;;;22.57;14.80;;;9.80;99.90;;;;;;5045950;28;20195;-43
2023/10/26 00:06:01;;;;;;;25.37;15.90;;;9.80;99.90;;;;;;5047457;28;20198;-43
2023/10/26 00:08:26;;;;;;;27.90;16.37;;;9.80;99.90;;;;;;5048687;28;20311;-44
2023/10/26 00:10:52;;;;;;;29.50;16.80;;;9.80;99.90;;;;;;5049105;28;20236;-43
2023/10/26 00:13:18;;;;;;;22.63;14.50;;;9.80;99.90;;;;;;5046519;28;20202;-43
2023/10/26 00:15:43;;;;;;;26.10;15.63;;;9.80;99.90;;;;;;5045810;28;20434;-43
2023/10/26 00:18:09;;;;;;;29.67;16.67;;;9.70;99.90;;;;;;5047906;28;20550;-43
2023/10/26 00:20:35;;;;;;;27.70;15.83;;;9.70;99.90;;;;;;5044711;28;20193;-43
2023/10/26 00:23:01;;;;;;;26.03;15.30;;;9.70;99.90;;;;;;5043519;28;20500;-43
2023/10/26 00:25:27;;;;;;;24.40;15.57;;;9.70;99.90;;;;;;5049016;28;20251;-43
2023/10/26 00:27:53;;;;;;;25.03;14.00;;;9.70;99.90;;;;;;5048278;28;20464;-43
2023/10/26 00:30:18;;;;;;;22.40;13.50;;;9.70;99.90;;;;;;5048589;28;20198;-43
2023/10/26 00:32:44;;;;;;;26.37;15.47;;;9.70;99.90;;;;;;5043947;28;20186;-44
2023/10/26 00:35:10;;;;;;;23.50;15.30;;;9.70;99.90;;;;;;5045038;28;20201;-43
2023/10/26 00:37:35;;;;;;;22.70;14.33;;;9.70;99.90;;;;;;5047736;28;20439;-43
2023/10/26 00:40:02;;;;;;;26.27;14.73;;;9.60;99.90;;;;;;5045545;28;20316;-43
2023/10/26 00:42:27;;;;;;;24.93;14.20;;;9.60;99.90;;;;;;5046977;28;20202;-44
2023/10/26 00:44:56;;;;;;;26.43;14.20;;;9.60;99.90;;;;;;5046162;28;20787;-45
2023/10/26 00:47:22;;;;;;;23.30;14.07;;;9.50;99.90;;;;;;5047995;28;20193;-43
2023/10/26 00:49:48;;;;;;;22.73;14.10;;;9.60;99.90;;;;;;5045290;28;20563;-44
2023/10/26 00:52:14;;;;;;;24.07;14.53;;;9.50;99.90;;;;;;5048234;28;20451;-43
2023/10/26 00:54:42;;;;;;;22.40;14.40;;;9.50;99.90;;;;;;5043832;28;20444;-43
2023/10/26 00:57:08;;;;;;;21.43;14.73;;;9.50;99.90;;;;;;5045816;28;20763;-43
2023/10/26 00:59:34;;;;;;;25.83;15.20;;;9.50;99.90;;;;;;5045425;28;20847;-43
2023/10/26 01:02:01;;;;;;;23.00;13.93;;;9.50;99.90;;;;;;5043891;28;20455;-44
2023/10/26 01:04:27;;;;;;;26.53;14.40;;;9.40;99.90;;;;;;5044927;28;20186;-43
2023/10/26 01:06:53;;;;;;;21.90;14.37;;;9.50;99.90;;;;;;5042400;28;20443;-44
2023/10/26 01:09:20;;;;;;;23.00;14.93;;;9.40;99.90;;;;;;5043657;28;20485;-43
2023/10/26 01:11:46;;;;;;;25.30;15.13;;;9.40;99.90;;;;;;5046527;28;20209;-43
2023/10/26 01:14:12;;;;;;;25.77;14.43;;;9.40;99.90;;;;;;5048021;28;20550;-44
2023/10/26 01:16:38;;;;;;;21.80;13.10;;;9.30;99.90;;;;;;5047787;28;20957;-43
2023/10/26 01:19:05;;;;;;;21.23;14.40;;;9.30;99.90;;;;;;5043802;28;20524;-43
2023/10/26 01:21:46;;;;;;;29.07;14.70;;;9.30;99.90;;;;;;5047263;28;20846;-43
2023/10/26 01:24:12;;;;;;;27.07;15.67;;;9.30;99.90;;;;;;5044804;28;20937;-43
2023/10/26 01:26:37;;;;;;;25.00;15.93;;;9.30;99.90;;;;;;5043685;28;20440;-43
2023/10/26 01:29:03;;;;;;;23.33;14.30;;;9.30;99.90;;;;;;5047483;28;20319;-43
2023/10/26 01:31:29;;;;;;;23.43;15.33;;;9.30;99.90;;;;;;5045499;28;20200;-43
2023/10/26 01:33:54;;;;;;;30.77;17.20;;;9.30;99.90;;;;;;5047586;28;20497;-44
2023/10/26 01:36:20;;;;;;;29.83;15.63;;;9.20;99.90;;;;;;5045805;28;20190;-42
2023/10/26 01:38:45;;;;;;;31.10;16.27;;;9.20;99.90;;;;;;5047557;28;20207;-44
2023/10/26 01:41:11;;;;;;;25.67;15.10;;;9.30;99.90;;;;;;5048280;28;20184;-43
2023/10/26 01:43:37;;;;;;;25.50;15.07;;;9.20;99.90;;;;;;5044181;28;20680;-43
2023/10/26 01:46:03;;;;;;;43.23;16.43;;;9.20;99.90;;;;;;5046602;28;20221;-43
2023/10/26 01:48:28;;;;;;;26.43;15.73;;;9.20;99.90;;;;;;5046520;28;20514;-43
2023/10/26 01:50:54;;;;;;;26.33;14.93;;;9.10;99.90;;;;;;5046570;28;20323;-43
2023/10/26 01:53:23;;;;;;;26.27;15.27;;;9.20;99.90;;;;;;5047909;28;21155;-42
2023/10/26 01:55:49;;;;;;;27.63;16.87;;;9.20;99.90;;;;;;5041265;28;20190;-44
2023/10/26 01:58:15;;;;;;;28.93;16.30;;;9.20;99.90;;;;;;5046535;28;20439;-43
2023/10/26 02:00:41;;;;;;;29.23;15.63;;;9.20;99.90;;;;;;5044303;28;20487;-43
2023/10/26 02:03:07;;;;;;;26.30;16.23;;;9.20;99.90;;;;;;5045810;28;20190;-43
2023/10/26 02:05:33;;;;;;;22.43;15.53;;;9.20;99.90;;;;;;5042481;28;20464;-43
2023/10/26 02:07:59;;;;;;;25.40;15.90;;;9.20;99.90;;;;;;5046839;28;20234;-44
2023/10/26 02:10:29;;;;;;;33.20;16.10;;;9.20;99.90;;;;;;5044881;28;20459;-43
2023/10/26 02:12:58;;;;;;;26.90;15.70;;;9.20;99.90;;;;;;5045498;28;20652;-43
2023/10/26 02:15:23;;;;;;;24.80;16.20;;;9.20;99.90;;;;;;5043170;28;20493;-43
2023/10/26 02:17:49;;;;;;;26.37;16.10;;;9.20;99.90;;;;;;5046901;28;20449;-43
2023/10/26 02:20:15;;;;;;;27.63;15.80;;;9.20;99.90;;;;;;5051817;28;20201;-43
2023/10/26 02:22:40;;;;;;;31.53;16.57;;;9.20;99.90;;;;;;5050722;28;20652;-43
2023/10/26 02:25:06;;;;;;;27.33;15.60;;;9.20;99.90;;;;;;5046676;28;20190;-43
2023/10/26 02:27:32;;;;;;;26.70;16.43;;;9.20;99.90;;;;;;5048720;28;20192;-43
2023/10/26 02:29:58;;;;;;;26.80;15.57;;;9.20;99.90;;;;;;5047064;28;20473;-43
2023/10/26 02:32:23;;;;;;;28.87;15.37;;;9.20;99.90;;;;;;5048816;28;20525;-43
2023/10/26 02:34:49;;;;;;;28.23;16.93;;;9.20;99.90;;;;;;5050541;28;20201;-43
2023/10/26 02:37:17;;;;;;;25.93;16.27;;;9.20;99.90;;;;;;5049950;28;20197;-43
2023/10/26 02:39:43;;;;;;;29.43;16.33;;;9.20;99.90;;;;;;5053866;28;20281;-43
2023/10/26 02:42:09;;;;;;;27.43;16.97;;;9.20;99.90;;;;;;5048828;28;20496;-43
2023/10/26 02:44:34;;;;;;;34.57;17.03;;;9.20;99.90;;;;;;5051470;28;20206;-43
2023/10/26 02:47:00;;;;;;;27.23;16.83;;;9.20;99.90;;;;;;5047978;28;20878;-43
2023/10/26 02:49:25;;;;;;;31.03;17.07;;;9.20;99.90;;;;;;5050779;28;20690;-43
2023/10/26 02:51:51;;;;;;;27.37;16.43;;;9.20;99.90;;;;;;5049724;28;20706;-43
2023/10/26 02:54:16;;;;;;;26.10;16.97;;;9.20;99.90;;;;;;5050488;28;20190;-43
2023/10/26 02:56:42;;;;;;;25.17;16.30;;;9.20;99.90;;;;;;5045401;28;20189;-43
2023/10/26 02:59:08;;;;;;;28.20;16.73;;;9.20;99.90;;;;;;5048974;28;20193;-44
2023/10/26 03:01:34;;;;;;;29.37;17.37;;;9.10;99.90;;;;;;5046492;28;20196;-43
2023/10/26 03:04:04;;;;;;;25.40;16.43;;;9.20;99.90;;;;;;5049330;28;20193;-43
2023/10/26 03:06:35;;;;;;;24.70;15.47;;;9.20;99.90;;;;;;5047088;28;20450;-43
2023/10/26 03:09:01;;;;;;;27.70;16.33;;;9.20;99.90;;;;;;5048750;28;20626;-43
2023/10/26 03:11:26;;;;;;;31.60;16.47;;;9.20;99.90;;;;;;5047677;28;20531;-44
2023/10/26 03:13:52;;;;;;;23.83;16.40;;;9.10;99.90;;;;;;5049528;28;20257;-43
2023/10/26 03:16:17;;;;;;;29.63;16.80;;;9.20;99.90;;;;;;5047925;28;20187;-44
2023/10/26 03:18:43;;;;;;;25.30;16.90;;;9.10;99.90;;;;;;5049925;28;20185;-43
2023/10/26 03:21:08;;;;;;;25.83;15.67;;;9.10;99.90;;;;;;5047854;28;20253;-44
2023/10/26 03:23:34;;;;;;;27.77;17.27;;;9.10;99.90;;;;;;5049594;28;20244;-43
2023/10/26 03:26:00;;;;;;;24.80;16.40;;;9.10;99.90;;;;;;5049023;28;20233;-43
2023/10/26 03:28:25;;;;;;;26.20;16.90;;;9.10;99.90;;;;;;5044818;28;20224;-44
2023/10/26 03:30:51;;;;;;;29.20;17.20;;;9.10;99.90;;;;;;5050660;28;20193;-43
2023/10/26 03:33:17;;;;;;;30.97;15.90;;;9.10;99.90;;;;;;5049655;28;20513;-44
2023/10/26 03:35:42;;;;;;;30.70;18.63;;;9.10;99.90;;;;;;5049533;28;20193;-44
2023/10/26 03:38:08;;;;;;;24.63;14.47;;;9.10;99.90;;;;;;5045538;28;20190;-44
2023/10/26 03:40:34;;;;;;;29.50;19.20;;;9.10;99.90;;;;;;5050933;28;20524;-44
2023/10/26 03:42:59;;;;;;;31.23;17.40;;;9.10;99.90;;;;;;5048808;28;20525;-43
2023/10/26 03:45:27;;;;;;;26.30;16.53;;;9.10;99.90;;;;;;5047723;28;20193;-44
2023/10/26 03:47:52;;;;;;;27.77;16.30;;;9.10;99.90;;;;;;5045578;28;20221;-44
2023/10/26 03:50:18;;;;;;;30.67;17.60;;;9.10;99.90;;;;;;5047833;28;20485;-45
2023/10/26 03:52:44;;;;;;;31.97;18.70;;;9.10;99.90;;;;;;5049619;28;20655;-43
2023/10/26 03:55:09;;;;;;;30.13;16.30;;;9.20;99.90;;;;;;5048370;28;20224;-43
2023/10/26 03:57:35;;;;;;;30.43;18.67;;;9.10;99.90;;;;;;5047548;28;20189;-43
2023/10/26 04:00:02;;;;;;;36.00;18.77;;;9.20;99.90;;;;;;5045976;28;20201;-43
2023/10/26 04:02:28;;;;;;;33.90;18.43;;;9.10;99.90;;;;;;5047253;28;20282;-43
2023/10/26 04:04:55;;;;;;;30.27;17.90;;;9.10;99.90;;;;;;5050826;28;20532;-43
2023/10/26 04:07:20;;;;;;;30.87;18.40;;;9.20;99.90;;;;;;5043985;28;20194;-44
2023/10/26 04:09:46;;;;;;;27.47;16.63;;;10.60;99.90;;;;;;5049036;28;20479;-43
2023/10/26 04:12:12;;;;;;;30.27;18.10;;;9.20;99.90;;;;;;5047208;28;20285;-43
2023/10/26 04:14:37;;;;;;;33.50;19.20;;;9.20;99.90;;;;;;5043724;28;20639;-43
2023/10/26 04:17:05;;;;;;;33.40;19.40;;;9.20;99.90;;;;;;5046445;28;20185;-43
2023/10/26 04:19:33;;;;;;;38.37;20.17;;;9.20;99.90;;;;;;5048313;28;20198;-44
2023/10/26 04:21:59;;;;;;;34.20;18.97;;;9.20;99.90;;;;;;5047195;28;20451;-44
2023/10/26 04:24:24;;;;;;;32.60;19.07;;;9.20;99.90;;;;;;5047624;28;20438;-43
2023/10/26 04:26:50;;;;;;;35.60;19.77;;;9.20;99.90;;;;;;5045889;28;20214;-44
2023/10/26 04:29:16;;;;;;;35.77;21.10;;;9.20;99.90;;;;;;5048051;28;20228;-43
2023/10/26 04:31:41;;;;;;;37.30;21.83;;;9.20;99.90;;;;;;5046361;28;20180;-43
2023/10/26 04:34:07;;;;;;;40.33;20.97;;;9.20;99.90;;;;;;5048029;28;20201;-46
2023/10/26 04:36:32;;;;;;;36.03;20.23;;;9.20;99.90;;;;;;5047453;28;20192;-44
2023/10/26 04:38:58;;;;;;;34.60;19.60;;;9.10;99.90;;;;;;5047333;28;20186;-44
2023/10/26 04:41:24;;;;;;;35.03;20.43;;;9.20;99.90;;;;;;5049299;28;20601;-43
2023/10/26 04:43:50;;;;;;;37.03;21.63;;;9.10;99.90;;;;;;5044584;28;20499;-43
2023/10/26 04:46:15;;;;;;;37.67;21.33;;;9.10;99.90;;;;;;5047697;28;20190;-44
2023/10/26 04:48:41;;;;;;;46.13;22.20;;;9.10;99.90;;;;;;5043965;28;20225;-44
2023/10/26 04:51:08;;;;;;;39.33;21.50;;;9.10;99.90;;;;;;5047619;28;20329;-44
2023/10/26 04:53:34;;;;;;;36.97;21.70;;;9.10;99.90;;;;;;5048572;28;20592;-43
2023/10/26 04:55:59;;;;;;;42.17;22.20;;;10.50;99.90;;;;;;5045783;28;20441;-44
2023/10/26 04:58:25;;;;;;;48.80;24.43;;;9.10;99.90;;;;;;5048437;28;20196;-43
2023/10/26 05:00:50;;;;;;;40.90;22.50;;;9.10;99.90;;;;;;5042485;28;20550;-44
2023/10/26 05:03:16;;;;;;;40.73;21.43;;;9.10;99.90;;;;;;5047355;28;20181;-44
2023/10/26 05:05:41;;;;;;;43.90;23.10;;;9.10;99.90;;;;;;5043834;28;20177;-44
2023/10/26 05:08:07;;;;;;;41.97;22.40;;;9.10;99.90;;;;;;5045976;28;20222;-44
2023/10/26 05:10:33;;;;;;;42.47;21.87;;;9.10;99.90;;;;;;5046977;28;21403;-43
2023/10/26 05:12:59;;;;;;;42.20;22.73;;;9.10;99.90;;;;;;5045979;28;20225;-44
2023/10/26 05:15:25;;;;;;;46.53;21.87;;;9.10;99.90;;;;;;5046496;28;20843;-43
2023/10/26 05:17:51;;;;;;;44.40;22.00;;;9.10;99.90;;;;;;5045867;28;20192;-44
2023/10/26 05:20:16;;;;;;;47.70;23.33;;;9.10;99.90;;;;;;5047697;28;20514;-43
2023/10/26 05:22:42;;;;;;;41.67;23.57;;;9.10;99.90;;;;;;5045495;28;20185;-44
2023/10/26 05:25:10;;;;;;;46.93;24.37;;;9.10;99.90;;;;;;5046007;28;20201;-45
2023/10/26 05:27:36;;;;;;;42.20;23.27;;;9.10;99.90;;;;;;5043920;28;20281;-44
2023/10/26 05:30:02;;;;;;;46.20;22.00;;;9.10;99.90;;;;;;5047449;28;20531;-43
2023/10/26 05:32:28;;;;;;;55.20;23.83;;;9.10;99.90;;;;;;5045510;28;20190;-44
2023/10/26 05:34:54;;;;;;;44.80;21.50;;;9.10;99.90;;;;;;5046029;28;20436;-43
2023/10/26 05:37:19;;;;;;;42.00;22.03;;;9.10;99.90;;;;;;5047368;28;20201;-44
2023/10/26 05:39:45;;;;;;;42.13;21.00;;;9.10;99.90;;;;;;5046113;28;20482;-44
2023/10/26 05:42:11;;;;;;;40.70;19.53;;;9.10;99.90;;;;;;5044876;28;20190;-43
2023/10/26 05:44:36;;;;;;;51.40;22.80;;;9.10;99.90;;;;;;5045041;28;20182;-44
2023/10/26 05:47:02;;;;;;;40.57;21.23;;;9.10;99.90;;;;;;5041806;28;20700;-44
2023/10/26 05:49:28;;;;;;;45.80;22.93;;;9.00;99.90;;;;;;5044981;28;20702;-43
2023/10/26 05:51:53;;;;;;;42.13;21.80;;;9.00;99.90;;;;;;5043114;28;20205;-44
2023/10/26 05:54:19;;;;;;;42.10;22.37;;;9.10;99.90;;;;;;5044567;28;20790;-43
2023/10/26 05:56:45;;;;;;;40.53;22.33;;;9.10;99.90;;;;;;5045852;28;20190;-43
2023/10/26 05:59:10;;;;;;;39.50;21.43;;;9.10;99.90;;;;;;5047948;28;20185;-43
2023/10/26 06:01:36;;;;;;;47.37;23.50;;;9.10;99.90;;;;;;5046421;28;20268;-43
2023/10/26 06:04:02;;;;;;;53.27;22.03;;;9.10;99.90;;;;;;5043499;28;20194;-44
2023/10/26 06:06:27;;;;;;;42.90;22.70;;;9.10;99.90;;;;;;5046640;28;20191;-43
2023/10/26 06:08:53;;;;;;;50.43;24.20;;;9.10;99.90;;;;;;5046655;28;20490;-44
2023/10/26 06:11:18;;;;;;;51.63;23.53;;;9.10;99.90;;;;;;5047788;28;20268;-45
2023/10/26 06:13:44;;;;;;;44.13;22.67;;;9.10;99.90;;;;;;5045807;28;20190;-44
2023/10/26 06:16:13;;;;;;;50.37;24.30;;;9.10;99.90;;;;;;5046572;28;20663;-44
2023/10/26 06:18:39;;;;;;;52.10;26.03;;;9.20;99.90;;;;;;5038156;28;20975;-44
2023/10/26 06:21:05;;;;;;;51.20;24.40;;;9.20;99.90;;;;;;5045895;28;20440;-44
2023/10/26 06:23:30;;;;;;;46.80;24.27;;;9.20;99.90;;;;;;5046383;28;20927;-44
2023/10/26 06:25:58;;;;;;;46.13;23.93;;;9.20;99.90;;;;;;5048711;28;20436;-47
2023/10/26 06:28:24;;;;;;;48.60;23.50;;;9.20;99.90;;;;;;5043396;28;20729;-44
2023/10/26 06:30:50;;;;;;;44.10;22.83;;;9.20;99.90;;;;;;5043625;28;20453;-44
2023/10/26 06:33:15;;;;;;;51.63;25.80;;;9.20;99.90;;;;;;5047884;28;20527;-44
2023/10/26 06:35:41;;;;;;;50.77;23.40;;;9.30;99.90;;;;;;5047332;28;20197;-45
2023/10/26 06:38:07;;;;;;;53.07;23.60;;;9.30;99.90;;;;;;5045719;28;20196;-44
2023/10/26 06:40:32;;;;;;;61.70;24.73;;;9.30;99.90;;;;;;5043959;28;20193;-44
2023/10/26 06:43:00;;;;;;;53.90;25.97;;;9.30;99.90;;;;;;5046706;28;20197;-45
2023/10/26 06:45:25;;;;;;;52.50;25.03;;;9.30;99.90;;;;;;5047191;28;20197;-44
2023/10/26 06:47:51;;;;;;;49.70;25.20;;;9.30;99.90;;;;;;5043821;28;20458;-44
2023/10/26 06:50:16;;;;;;;50.97;24.40;;;9.40;99.90;;;;;;5044321;28;20276;-43
2023/10/26 06:52:42;;;;;;;49.77;25.80;;;9.40;99.90;;;;;;5044515;28;20188;-43
2023/10/26 06:55:14;;;;;;;59.03;25.70;;;9.50;99.90;;;;;;5046901;28;20244;-44
2023/10/26 06:57:40;;;;;;;48.93;24.33;;;9.50;99.90;;;;;;5045803;28;20204;-45
2023/10/26 07:00:08;;;;;;;55.20;23.87;;;9.50;99.90;;;;;;5046516;28;20434;-44
2023/10/26 07:02:34;;;;;;;43.33;23.30;;;9.60;99.90;;;;;;5047528;28;20187;-43
2023/10/26 07:05:03;;;;;;;47.77;23.23;;;9.60;99.90;;;;;;5047064;28;20501;-44
2023/10/26 07:07:28;;;;;;;47.63;22.17;;;9.80;99.90;;;;;;5046727;28;20186;-44
2023/10/26 07:09:54;;;;;;;38.17;20.10;;;9.80;99.90;;;;;;5050003;28;20492;-43
2023/10/26 07:12:20;;;;;;;44.13;21.40;;;9.80;99.90;;;;;;5049631;28;20192;-44
2023/10/26 07:14:45;;;;;;;37.37;19.23;;;9.90;99.90;;;;;;5051260;28;20993;-44
2023/10/26 07:17:11;;;;;;;38.40;19.63;;;9.90;99.90;;;;;;5049220;28;20193;-44
2023/10/26 07:19:36;;;;;;;40.53;20.73;;;10.00;99.90;;;;;;5051318;28;20189;-44
2023/10/26 07:22:02;;;;;;;41.03;19.90;;;10.00;99.90;;;;;;5048070;28;20190;-43
2023/10/26 07:24:29;;;;;;;41.77;20.50;;;10.10;99.90;;;;;;5049925;28;20197;-44
2023/10/26 07:26:54;;;;;;;35.80;19.53;;;10.20;99.90;;;;;;5049833;28;20460;-43
2023/10/26 07:29:20;;;;;;;39.30;20.70;;;10.30;99.90;;;;;;5049556;28;20481;-43
2023/10/26 07:31:46;;;;;;;37.03;19.57;;;11.50;99.90;;;;;;5049562;28;20273;-43
2023/10/26 07:34:12;;;;;;;35.43;18.67;;;10.50;99.90;;;;;;5048479;28;20180;-43
2023/10/26 07:36:37;;;;;;;34.90;18.30;;;10.50;99.90;;;;;;5050308;28;20494;-44
2023/10/26 07:39:03;;;;;;;40.13;18.90;;;10.60;99.90;;;;;;5048002;28;20554;-43
2023/10/26 07:41:28;;;;;;;35.80;16.90;;;10.70;99.90;;;;;;5049883;28;20657;-44
2023/10/26 07:43:54;;;;;;;31.90;17.83;;;10.70;99.90;;;;;;5048384;28;20190;-44
2023/10/26 07:46:20;;;;;;;30.40;17.00;;;10.70;99.90;;;;;;5048886;28;20187;-43
2023/10/26 07:48:46;;;;;;;27.20;15.93;;;10.70;99.90;;;;;;5049157;28;20232;-43
2023/10/26 07:51:11;;;;;;;29.20;16.17;;;10.80;99.90;;;;;;5049713;28;20518;-43
2023/10/26 07:53:37;;;;;;;30.33;17.13;;;10.80;99.90;;;;;;5049318;28;20609;-43
2023/10/26 07:56:02;;;;;;;30.23;15.63;;;10.80;99.90;;;;;;5048412;28;20540;-43
2023/10/26 07:58:30;;;;;;;29.03;15.83;;;10.80;99.90;;;;;;5050059;28;20186;-43
2023/10/26 08:00:56;;;;;;;25.00;15.23;;;10.80;99.90;;;;;;5048481;28;20600;-43
2023/10/26 08:03:25;;;;;;;25.33;14.93;;;10.90;99.90;;;;;;5049134;28;20525;-43
2023/10/26 08:06:00;;;;;;;26.67;14.80;;;10.90;99.90;;;;;;5048639;28;20446;-43
2023/10/26 08:08:27;;;;;;;24.87;14.57;;;11.00;99.90;;;;;;5047122;28;20477;-43
2023/10/26 08:10:52;;;;;;;28.37;15.37;;;11.00;99.90;;;;;;5049139;28;20462;-44
2023/10/26 08:13:18;;;;;;;23.40;14.00;;;11.10;99.90;;;;;;5048400;28;20432;-43
2023/10/26 08:15:43;;;;;;;25.67;14.77;;;11.00;99.90;;;;;;5047867;28;20179;-46
2023/10/26 08:18:11;;;;;;;26.03;13.93;;;11.10;99.90;;;;;;5048625;28;20191;-43
2023/10/26 08:20:37;;;;;;;27.00;14.80;;;11.20;99.90;;;;;;5049082;28;20201;-43
2023/10/26 08:23:03;;;;;;;21.90;13.47;;;11.20;99.90;;;;;;5048059;28;20437;-43
2023/10/26 08:25:28;;;;;;;22.30;14.10;;;11.20;99.90;;;;;;5047807;28;20478;-43
2023/10/26 08:27:54;;;;;;;20.47;12.57;;;11.20;19.50;;;;;;5048175;28;20183;-43
2023/10/26 08:30:20;;;;;;;23.20;14.20;;;11.30;42.40;;;;;;5048477;28;20274;-44
2023/10/26 08:32:49;;;;;;;22.30;13.37;;;11.30;35.30;;;;;;5049167;28;20194;-43
2023/10/26 08:35:14;;;;;;;25.20;13.60;;;11.30;19.40;;;;;;5047073;28;20199;-43
2023/10/26 08:37:40;;;;;;;20.33;12.63;;;11.20;1.00;;;;;;5048575;28;20989;-43
2023/10/26 08:40:11;;;;;;;17.57;11.43;;;11.20;1.00;;;;;;5048386;28;20587;-43
2023/10/26 08:42:38;;;;;;;18.90;12.60;;;11.20;1.00;;;;;;5047740;28;20660;-45
2023/10/26 08:45:10;;;;;;;18.93;11.87;;;11.20;4.70;;;;;;5048392;28;21027;-43
2023/10/26 08:47:36;;;;;;;25.40;13.70;;;11.20;11.40;;;;;;5047173;28;20793;-43
2023/10/26 08:50:03;;;;;;;21.17;12.30;;;11.40;28.10;;;;;;5047517;28;20493;-43
2023/10/26 08:52:28;;;;;;;19.13;12.27;;;11.30;24.50;;;;;;5046469;28;20187;-44
2023/10/26 08:54:55;;;;;;;18.00;12.17;;;11.20;2.70;;;;;;5047951;28;20440;-43
2023/10/26 08:57:21;;;;;;;17.40;10.90;;;11.20;18.50;;;;;;5047495;28;20222;-43
2023/10/26 08:59:46;;;;;;;20.90;12.30;;;11.30;34.30;;;;;;5046503;28;20991;-44
2023/10/26 09:02:12;;;;;;;20.47;11.27;;;11.30;34.80;;;;;;5048513;28;20259;-43
2023/10/26 09:04:38;;;;;;;16.73;11.03;;;11.30;2.40;;;;;;5046450;28;20187;-44
2023/10/26 09:07:03;;;;;;;16.97;10.37;;;11.40;1.00;;;;;;5048217;28;20197;-43
2023/10/26 09:09:41;;;;;;;16.43;11.00;;;11.20;1.00;;;;;;5047430;28;20312;-43
2023/10/26 09:12:11;;;;;;;14.27;10.00;;;11.10;1.00;;;;;;5046441;28;20227;-44
2023/10/26 09:14:36;;;;;;;20.90;10.53;;;11.10;1.00;;;;;;5047836;28;20477;-43
2023/10/26 09:17:03;;;;;;;14.60;10.30;;;11.10;1.00;;;;;;5047165;28;20473;-43
2023/10/26 09:19:38;;;;;;;13.37;9.53;;;11.10;2.00;;;;;;5047548;28;20253;-43
2023/10/26 09:22:04;;;;;;;16.87;10.77;;;11.20;15.40;;;;;;5048403;28;20429;-43
2023/10/26 09:24:29;;;;;;;13.60;9.97;;;11.30;24.90;;;;;;5046111;28;20533;-43
2023/10/26 09:27:03;;;;;;;14.83;10.60;;;11.50;36.00;;;;;;5048016;28;20213;-43
2023/10/26 09:29:39;;;;;;;15.00;10.60;;;11.60;1.00;;;;;;5046190;28;20309;-43
2023/10/26 09:32:05;;;;;;;20.70;10.70;;;11.90;1.00;;;;;;5046066;28;20446;-43
2023/10/26 09:34:36;;;;;;;16.23;9.70;;;12.10;1.00;;;;;;5047856;28;20804;-44
2023/10/26 09:37:04;;;;;;;15.13;9.07;;;12.20;1.00;;;;;;5045881;28;20437;-43
2023/10/26 09:39:32;;;;;;;12.17;8.60;;;12.50;1.00;;;;;;5047023;28;20438;-43
2023/10/26 09:42:00;;;;;;;17.40;7.80;;;12.70;99.90;;;;;;5047465;28;24332;-43
2023/10/26 09:44:26;;;;;;;12.40;8.77;;;12.90;1.00;;;;;;5045724;28;20508;-43
2023/10/26 09:46:52;;;;;;;12.73;7.40;;;12.90;1.00;;;;;;5047635;28;20448;-43
2023/10/26 09:49:18;;;;;;;12.10;6.87;;;13.00;1.00;;;;;;5046137;28;20847;-43
2023/10/26 09:51:44;;;;;;;8.13;6.40;;;13.00;99.90;;;;;;5047367;28;20230;-44
2023/10/26 09:54:10;;;;;;;10.30;7.20;;;12.80;1.00;;;;;;5046674;28;20599;-42
2023/10/26 09:56:38;;;;;;;10.07;7.87;;;12.70;1.00;;;;;;5046532;28;20433;-42
2023/10/26 09:59:05;;;;;;;8.90;6.37;;;12.70;99.90;;;;;;5047335;28;20434;-42
2023/10/26 10:01:39;;;;;;;6.30;5.10;;;12.70;99.90;;;;;;5045501;28;20442;-42
2023/10/26 10:04:07;;;;;;;9.33;6.03;;;12.70;99.90;;;;;;5043600;28;20491;-42
2023/10/26 10:06:52;;;;;;;7.77;5.27;;;12.90;99.90;;;;;;5046375;28;20537;-42
2023/10/26 10:09:25;;;;;;;6.10;4.30;;;13.00;99.90;;;;;;5046421;28;20812;-42
2023/10/26 10:12:06;;;;;;;8.13;4.50;;;13.10;99.90;;;;;;5045807;28;20485;-43
2023/10/26 10:14:47;;;;;;;5.47;4.20;;;13.00;99.90;;;;;;5043421;28;20843;-42
2023/10/26 10:17:13;;;;;;;7.40;4.10;;;13.00;99.90;;;;;;5043040;28;20461;-42
2023/10/26 10:19:43;;;;;;;8.60;4.23;;;13.00;99.90;;;;;;5045407;28;20445;-42
2023/10/26 10:22:33;;;;;;;5.60;4.27;;;12.90;99.90;;;;;;5046512;28;20445;-42
2023/10/26 10:24:59;;;;;;;6.90;4.43;;;12.90;99.90;;;;;;5043042;28;20950;-42
2023/10/26 10:27:24;;;;;;;5.33;4.07;;;12.80;99.90;;;;;;5046197;28;20475;-42
2023/10/26 10:29:50;;;;;;;5.03;4.10;;;12.70;99.90;;;;;;5046301;28;20295;-43
2023/10/26 10:32:46;;;;;;;14.57;4.20;;;12.70;99.90;;;;;;5047117;28;20193;-42
2023/10/26 10:35:32;;;;;;;6.77;4.70;;;12.60;99.90;;;;;;5045713;28;20199;-42
2023/10/26 10:38:17;;;;;;;7.00;4.03;;;12.50;99.90;;;;;;5046405;28;20451;-42
2023/10/26 10:40:54;;;;;;;10.77;4.50;;;12.50;99.90;;;;;;5049806;28;20526;-42
2023/10/26 10:43:34;;;;;;;4.90;4.00;;;12.50;99.90;;;;;;5049272;28;20456;-43
2023/10/26 10:46:20;;;;;;;5.33;3.63;;;12.60;99.90;;;;;;5049686;28;20454;-43
2023/10/26 10:49:05;;;;;;;4.93;3.93;;;12.50;99.90;;;;;;5047342;28;20530;-42
2023/10/26 10:51:42;;;;;;;7.00;4.17;;;12.40;99.90;;;;;;5046671;28;20827;-43
2023/10/26 10:54:12;;;;;;;3.97;3.57;;;12.40;99.90;;;;;;5050888;28;20437;-42
2023/10/26 10:56:40;;;;;;;5.33;3.70;;;12.50;99.90;;;;;;5048827;28;20457;-43
2023/10/26 10:59:19;;;;;;;4.17;3.20;;;12.40;99.90;;;;;;5050066;28;20957;-42
2023/10/26 11:01:46;;;;;;;5.47;4.17;;;12.40;99.90;;;;;;5050766;28;20441;-42
2023/10/26 11:04:14;;;;;;;8.00;4.13;;;12.50;99.90;;;;;;5048669;28;20435;-43
2023/10/26 11:06:49;;;;;;;9.50;4.13;;;12.60;99.90;;;;;;5046503;28;20439;-43
2023/10/26 11:09:26;;;;;;;4.17;3.77;;;12.60;99.90;;;;;;5049621;28;20804;-43
2023/10/26 11:11:52;;;;;;;6.83;4.07;;;12.70;99.90;;;;;;5049551;28;20451;-43
2023/10/26 11:14:19;;;;;;;3.60;3.30;;;12.70;99.90;;;;;;5050044;28;20425;-42
2023/10/26 11:16:45;;;;;;;4.23;3.40;;;12.80;99.90;;;;;;5050159;28;20225;-42
2023/10/26 11:19:11;;;;;;;5.20;3.53;;;12.70;99.90;;;;;;5048915;28;20467;-42
2023/10/26 11:21:38;;;;;;;3.60;3.30;;;12.70;99.90;;;;;;5050239;28;20194;-42
2023/10/26 11:24:04;;;;;;;4.10;3.20;;;12.50;99.90;;;;;;5049140;28;20197;-43
2023/10/26 11:26:29;;;;;;;4.70;3.63;;;12.40;99.90;;;;;;5049416;28;20473;-43
2023/10/26 11:28:56;;;;;;;4.20;3.53;;;12.40;99.90;;;;;;5049463;28;20496;-42
2023/10/26 11:31:35;;;;;;;4.90;4.10;;;12.30;99.90;;;;;;5049640;28;20258;-43
2023/10/26 11:34:06;;;;;;;10.93;3.70;;;12.20;99.90;;;;;;5046033;28;20520;-42
2023/10/26 11:36:32;;;;;;;4.60;4.17;;;12.10;99.90;;;;;;5046173;28;20799;-42
2023/10/26 11:38:58;;;;;;;5.87;3.90;;;12.00;99.90;;;;;;5055699;28;20418;-42
2023/10/26 11:41:25;;;;;;;4.40;4.00;;;12.00;99.90;;;;;;5039112;28;20184;-42
2023/10/26 11:43:51;;;;;;;5.17;4.63;;;11.90;99.90;;;;;;5035930;28;20596;-43
2023/10/26 11:46:37;;;;;;;5.23;4.27;;;11.90;99.90;;;;;;5035673;28;20428;-42
2023/10/26 11:49:05;;;;;;;6.40;4.30;;;11.80;99.90;;;;;;5035747;28;20207;-42
2023/10/26 11:51:31;;;;;;;4.30;3.90;;;11.80;99.90;;;;;;5034763;28;20480;-42
2023/10/26 11:54:09;;;;;;;5.37;4.17;;;11.80;99.90;;;;;;5035868;28;20426;-42
2023/10/26 11:56:35;;;;;;;7.80;4.87;;;11.90;99.90;;;;;;5035576;28;20406;-43
2023/10/26 11:59:00;;;;;;;5.67;3.77;;;11.90;99.90;;;;;;5035777;28;20422;-43
2023/10/26 12:01:26;;;;;;;4.27;3.87;;;12.00;99.90;;;;;;5035740;28;20187;-42
2023/10/26 12:03:52;;;;;;;9.50;4.27;;;12.10;99.90;;;;;;5035284;28;20318;-42
2023/10/26 12:06:18;;;;;;;4.87;3.23;;;12.40;99.90;;;;;;5035636;28;20190;-42
2023/10/26 12:08:43;;;;;;;5.73;4.27;;;12.80;99.90;;;;;;5035411;28;20463;-42
2023/10/26 12:11:11;;;;;;;4.87;3.20;;;13.30;99.90;;;;;;5035245;28;20194;-42
2023/10/26 12:13:37;;;;;;;6.43;3.00;;;13.70;99.90;;;;;;5035489;28;20187;-42
2023/10/26 12:16:03;;;;;;;5.73;3.33;;;13.70;83.50;;;;;;5035459;28;20421;-42
2023/10/26 12:18:29;;;;;;;5.10;3.20;;;13.70;90.60;;;;;;5035108;28;20427;-43
2023/10/26 12:20:55;;;;;;;5.10;3.23;;;13.50;58.10;;;;;;5035265;28;20410;-42
2023/10/26 12:23:20;;;;;;;6.60;3.77;;;13.30;45.80;;;;;;5035318;28;20182;-42
2023/10/26 12:25:46;;;;;;;3.73;3.20;;;13.10;45.30;;;;;;5034836;28;20553;-42
2023/10/26 12:28:11;;;;;;;2.97;2.77;;;13.00;66.70;;;;;;5034695;28;20180;-42
2023/10/26 12:30:37;;;;;;;5.80;3.10;;;13.00;77.10;;;;;;5035088;28;20585;-42
2023/10/26 12:33:02;;;;;;;5.03;3.47;;;12.90;90.00;;;;;;5035161;28;20263;-42
2023/10/26 12:35:29;;;;;;;3.30;2.97;;;12.80;87.40;;;;;;5041497;28;20654;-43
2023/10/26 12:37:55;;;;;;;3.23;2.93;;;12.80;90.00;;;;;;5047707;28;20218;-43